Terminal Aerodrome Forecast
Issued by NWS Wilmington, OH

Current Version | Previous Version | Graphics & Text | Print | Product List | Glossary On
Versions: 1 2 3 4 5 6 7 8 9 10 11 12 13 14 15 16 17 18 19
000
FTUS41 KILN 312300
TAFDAY
TAF
KDAY 312333Z 0100/0124 21007KT P6SM FEW035
     FM010600 20006KT 5SM BR FEW020
     FM010800 20006KT 4SM BR BKN012
     FM011000 21006KT 4SM BR OVC008
     FM011400 21010KT P6SM BKN015
     FM011700 21015G23KT P6SM SCT030=

USA.gov is the U.S. government's official web portal to all federal, state and local government web resources and services.